Davison Army Air Field Fort Belvoir US
ICAO: KDAA
IATA: DAA
Category: Medium
Scheduled Services: No

Elevation: 73 ft
TransAlt. 18000 ft.

Airport Communications:
POTOMAC APP:119.85
ATIS:128.175
CLNC DEL:24.52
CTAF:126.3
POTOMAC DEP:118.1
GND:121.9
ARNG OPS:52.75
BASE OPS:139.4
PMSV METRO:139.4
PTD:139.4
TWR:126.3

KDAA Zoom In..

Runways:

(A) RW 14 length 5619 ft width 75 ft
---- / hdg 142

(B) RW 32 length 5619 ft width 75 ft
ILS 108.90 / hdg 322

Location; KDAA
Day. 23 / Time. 14.56 Zulu
* Altimeter: 29.65
* Temperature: 16° c. 60.8°f.
* Wind from: 170° Speed 05 kn.
Dewpoint: 14° c.
Visibility: 10 Statute Miles.
Clouds: Few 2000 ft.
Clouds: Scattered 2800 ft.
Clouds: Broken 9500 ft.

KDAA 231456Z AUTO 17005KT 10SM FEW020 SCT028 BKN095 16/14 A2965 RMK AO2 SLP044 60000 T01610143 55006 $


Wind From 170°
Speed 05 kn.

YouTube Music Video
 
jpsmedia.com for Web Design  worldairports.se 2018   terms of use